Bishop International Airport Flint US
ICAO: KFNT
IATA: FNT
Category: Medium
Scheduled Services: Yes

Elevation: 782 ft
TransAlt. 18000 ft.

Airport Communications:
FLINT APP/DEP:118.8
ATIS:133.15
CLNC DEL:121.75
CTAF:126.3
FLINT GND:121.9
LANSING RDO:122.3
FLINT TWR:126.3
UNICOM:122.95

KFNT Zoom In..

If you have problems with the map follow the link
https://www.worldairports.se/pages/airport.php?
ICAO=KFNT

Runways:

(A) RW 09 length 7200 ft width 150 ft
ILS 109.90 / hdg 94

(B) RW 18 length 7848 ft width 150 ft
---- / hdg 185

(C) RW 27 length 7200 ft width 150 ft
ILS 109.90 / hdg 274

(D) RW 36 length 7848 ft width 150 ft
---- / hdg 5

Location; KFNT
Day. 18 / Time. 01.59 Zulu
* Altimeter: 29.89
* Temperature: -06° c. -21.2°f.
* Wind from: 020° Speed 09 kn.
Dewpoint: -08° c.
Visibility: 5 Statute Miles.
Clouds: Scattered 5500 ft.
Clouds: Overcast 7000 ft.
Conditions: Light Snow.Conditions: Mist.

KFNT 180159Z 02009KT 5SM -SN BR SCT055 OVC070 M06/M08 A2989 RMK AO2 P0000 T10611083


Wind From 020°
Speed 09 kn.

 
 
jpsmedia.com for Web Design worldairports.se 2019   terms of use